Time;durP1;ratioP1;P1;durP2;ratioP2;P2;SDS_P1;SDS_P2;PMS_P1;PMS_P2;Temp;Humidity;BMP_temperature;BMP_pressure;BME280_temperature;BME280_humidity;BME280_pressure;Samples;Min_cycle;Max_cycle;Signal;HPM_P1;HPM_P2
2022/03/07 00:02:11;;;;;;;0.43;0.43;;;20.40;34.40;;;;;;5112579;28;20052;-79
2022/03/07 00:04:38;;;;;;;0.40;0.40;;;20.40;34.40;;;;;;5077515;28;20101;-79
2022/03/07 00:07:05;;;;;;;0.50;0.50;;;20.40;34.40;;;;;;5111405;28;20484;-79
2022/03/07 00:09:31;;;;;;;0.52;0.52;;;20.30;34.30;;;;;;5112731;28;20506;-79
2022/03/07 00:11:56;;;;;;;0.47;0.47;;;20.30;34.40;;;;;;5112427;28;20051;-79
2022/03/07 00:14:22;;;;;;;0.63;0.60;;;20.40;34.50;;;;;;5112591;28;20449;-79
2022/03/07 00:16:47;;;;;;;0.63;0.63;;;20.30;34.40;;;;;;5112308;28;20059;-79
2022/03/07 00:19:13;;;;;;;0.50;0.50;;;20.30;34.40;;;;;;5109826;28;20434;-79
2022/03/07 00:21:39;;;;;;;0.47;0.47;;;20.40;34.40;;;;;;5112219;28;20080;-79
2022/03/07 00:24:06;;;;;;;0.40;0.40;;;20.40;34.40;;;;;;5113109;28;20134;-79
2022/03/07 00:26:32;;;;;;;0.47;0.47;;;20.40;34.40;;;;;;5112776;28;20438;-78
2022/03/07 00:28:58;;;;;;;0.68;0.60;;;20.30;34.40;;;;;;5112507;28;20059;-79
2022/03/07 00:31:23;;;;;;;0.52;0.52;;;20.40;34.40;;;;;;5112685;28;20118;-79
2022/03/07 00:33:50;;;;;;;0.50;0.50;;;20.30;34.40;;;;;;5094071;28;20487;-79
2022/03/07 00:36:17;;;;;;;0.60;0.57;;;20.30;34.40;;;;;;5111282;28;20048;-79
2022/03/07 00:38:44;;;;;;;0.60;0.60;;;20.30;34.40;;;;;;5112207;28;20503;-78
2022/03/07 00:41:10;;;;;;;0.50;0.50;;;20.30;34.40;;;;;;5097465;28;20105;-79
2022/03/07 00:43:36;;;;;;;0.50;0.50;;;20.40;34.40;;;;;;5115845;28;20040;-78
2022/03/07 00:46:03;;;;;;;0.50;0.50;;;20.30;34.40;;;;;;5115808;28;20047;-79
2022/03/07 00:48:28;;;;;;;0.52;0.52;;;20.30;34.40;;;;;;5095825;28;20050;-79
2022/03/07 00:50:54;;;;;;;0.55;0.55;;;20.30;34.40;;;;;;5115962;28;20437;-79
2022/03/07 00:53:23;;;;;;;0.63;0.50;;;20.40;34.40;;;;;;5096869;28;20047;-79
2022/03/07 00:55:50;;;;;;;0.50;0.50;;;20.40;34.50;;;;;;5096353;28;20139;-79
2022/03/07 00:58:15;;;;;;;0.40;0.40;;;20.40;34.40;;;;;;5114223;28;20048;-79
2022/03/07 01:00:43;;;;;;;0.55;0.55;;;20.30;34.40;;;;;;5097032;28;20062;-78
2022/03/07 01:03:10;;;;;;;0.50;0.50;;;20.40;34.40;;;;;;5097074;28;20457;-79
2022/03/07 01:05:36;;;;;;;0.60;0.60;;;20.30;34.40;;;;;;5113530;28;20158;-78
2022/03/07 01:08:02;;;;;;;0.50;0.50;;;20.40;34.40;;;;;;5076871;28;20559;-79
2022/03/07 01:10:27;;;;;;;0.50;0.50;;;20.30;34.40;;;;;;5115361;28;20047;-79
2022/03/07 01:12:54;;;;;;;0.70;0.70;;;20.40;34.40;;;;;;5097056;28;20146;-79
2022/03/07 01:15:20;;;;;;;0.55;0.50;;;20.30;34.30;;;;;;5115341;28;20072;-79
2022/03/07 01:17:46;;;;;;;0.50;0.50;;;20.40;34.40;;;;;;5115328;28;20138;-79
2022/03/07 01:20:12;;;;;;;0.50;0.50;;;20.40;34.40;;;;;;5096566;28;20091;-79
2022/03/07 01:22:38;;;;;;;0.50;0.50;;;20.40;34.40;;;;;;5115443;28;20085;-79
2022/03/07 01:25:05;;;;;;;0.60;0.60;;;20.40;34.40;;;;;;5115513;28;20382;-79
2022/03/07 01:27:32;;;;;;;0.60;0.60;;;20.30;34.40;;;;;;5114154;28;20057;-79
2022/03/07 01:29:57;;;;;;;0.55;0.55;;;20.40;34.40;;;;;;5115023;28;20060;-79
2022/03/07 01:32:23;;;;;;;0.50;0.50;;;20.40;34.40;;;;;;5080144;28;20055;-79
2022/03/07 01:34:48;;;;;;;0.73;0.70;;;20.30;34.40;;;;;;5097334;28;20437;-79
2022/03/07 01:37:14;;;;;;;0.65;0.65;;;20.40;34.40;;;;;;5096496;28;20062;-79
2022/03/07 01:39:40;;;;;;;0.50;0.50;;;20.40;34.40;;;;;;5096616;28;20052;-79
2022/03/07 01:42:06;;;;;;;0.60;0.60;;;20.40;34.40;;;;;;5114800;28;20043;-79
2022/03/07 01:44:32;;;;;;;0.82;0.70;;;20.40;34.40;;;;;;5080173;28;20391;-78
2022/03/07 01:46:58;;;;;;;0.52;0.52;;;20.30;34.40;;;;;;5112549;28;20051;-79
2022/03/07 01:49:25;;;;;;;0.50;0.50;;;20.30;34.40;;;;;;5096480;28;20201;-79
2022/03/07 01:51:51;;;;;;;0.75;0.75;;;20.30;34.40;;;;;;5076622;28;20056;-79
2022/03/07 01:54:20;;;;;;;0.50;0.50;;;20.30;34.40;;;;;;5096632;28;20431;-79
2022/03/07 01:56:48;;;;;;;0.95;0.85;;;20.40;34.40;;;;;;5095285;28;20125;-78
2022/03/07 01:59:25;;;;;;;0.55;0.55;;;20.30;34.90;;;;;;5096244;28;20453;-79
2022/03/07 02:01:52;;;;;;;0.50;0.50;;;20.30;34.40;;;;;;5113133;28;20055;-78
2022/03/07 02:04:19;;;;;;;0.75;0.60;;;20.40;34.40;;;;;;5096171;28;20052;-79
2022/03/07 02:06:46;;;;;;;0.70;0.63;;;20.30;34.40;;;;;;5111383;28;20052;-78
2022/03/07 02:09:13;;;;;;;0.60;0.50;;;20.30;34.40;;;;;;5093962;28;20051;-79
2022/03/07 02:11:43;;;;;;;0.45;0.45;;;20.30;34.40;;;;;;5113515;28;20044;-79
2022/03/07 02:14:20;;;;;;;0.60;0.60;;;20.40;34.40;;;;;;5096039;28;20055;-79
2022/03/07 02:16:50;;;;;;;0.60;0.60;;;20.30;34.40;;;;;;5112138;28;20055;-79
2022/03/07 02:19:18;;;;;;;0.68;0.60;;;20.40;34.40;;;;;;5094207;28;20082;-79
2022/03/07 02:21:48;;;;;;;0.60;0.60;;;20.30;34.30;;;;;;5112492;28;20126;-79
2022/03/07 02:24:18;;;;;;;0.68;0.60;;;20.40;34.40;;;;;;5111156;28;20054;-79
2022/03/07 02:27:01;;;;;;;;;;;20.30;34.40;;;;;;5094885;28;20392;-79
2022/03/07 02:29:28;;;;;;;0.50;0.50;;;20.40;34.40;;;;;;5095413;28;20350;-79
2022/03/07 02:31:57;;;;;;;0.43;0.43;;;20.30;34.30;;;;;;5094614;28;20492;-79
2022/03/07 02:34:25;;;;;;;0.50;0.50;;;20.30;34.30;;;;;;5094688;28;20071;-78
2022/03/07 02:36:52;;;;;;;0.60;0.60;;;20.30;34.40;;;;;;5093447;28;20090;-79
2022/03/07 02:39:19;;;;;;;0.57;0.57;;;20.30;34.30;;;;;;5095801;28;20167;-79
2022/03/07 02:41:45;;;;;;;0.50;0.50;;;20.30;34.40;;;;;;5113875;28;20534;-79
2022/03/07 02:44:12;;;;;;;0.73;0.60;;;20.40;34.40;;;;;;5095889;28;20052;-79
2022/03/07 02:46:38;;;;;;;0.68;0.68;;;20.40;34.40;;;;;;5095520;28;20081;-79
2022/03/07 02:49:05;;;;;;;0.50;0.50;;;20.40;34.40;;;;;;5094561;28;20059;-79
2022/03/07 02:51:32;;;;;;;0.50;0.50;;;20.30;34.40;;;;;;5113750;28;20074;-79
2022/03/07 02:53:58;;;;;;;0.60;0.60;;;20.30;34.30;;;;;;5095371;28;20103;-79
2022/03/07 02:56:23;;;;;;;1.05;0.50;;;20.30;34.40;;;;;;5113712;28;20047;-79
2022/03/07 02:58:49;;;;;;;0.50;0.50;;;20.30;34.30;;;;;;5113501;28;20509;-79
2022/03/07 03:01:15;;;;;;;0.63;0.63;;;20.40;34.40;;;;;;5113693;28;20044;-79
2022/03/07 03:03:41;;;;;;;0.63;0.63;;;20.40;34.40;;;;;;5093963;28;20047;-79
2022/03/07 03:06:07;;;;;;;0.50;0.50;;;20.40;34.30;;;;;;5113608;28;20142;-79
2022/03/07 03:08:33;;;;;;;0.70;0.70;;;20.40;34.30;;;;;;5112186;28;20491;-79
2022/03/07 03:10:59;;;;;;;0.57;0.57;;;20.40;34.30;;;;;;5113580;28;20057;-79
2022/03/07 03:13:24;;;;;;;0.70;0.70;;;20.40;34.20;;;;;;5113431;28;20116;-79
2022/03/07 03:15:51;;;;;;;0.65;0.65;;;20.50;34.20;;;;;;5095069;28;20055;-78
2022/03/07 03:18:18;;;;;;;1.85;0.95;;;20.50;34.20;;;;;;5113436;28;20539;-79
2022/03/07 03:20:46;;;;;;;0.50;0.50;;;20.50;34.20;;;;;;5113632;28;20044;-78
2022/03/07 03:23:12;;;;;;;0.68;0.68;;;20.50;34.10;;;;;;5078400;28;20047;-79
2022/03/07 03:25:38;;;;;;;0.57;0.57;;;20.50;34.20;;;;;;5095019;28;20082;-78
2022/03/07 03:28:04;;;;;;;0.50;0.50;;;20.50;34.10;;;;;;5095210;28;20082;-78
2022/03/07 03:30:30;;;;;;;0.50;0.50;;;20.60;34.10;;;;;;5113199;28;20039;-79
2022/03/07 03:32:56;;;;;;;0.50;0.50;;;20.60;34.10;;;;;;5113505;28;20103;-79
2022/03/07 03:35:21;;;;;;;0.57;0.57;;;20.60;34.10;;;;;;5113205;28;20079;-79
2022/03/07 03:37:47;;;;;;;0.43;0.43;;;20.60;34.10;;;;;;5113206;28;20146;-79
2022/03/07 03:40:13;;;;;;;0.60;0.60;;;20.60;34.10;;;;;;5112902;28;20056;-79
2022/03/07 03:42:39;;;;;;;0.88;0.88;;;20.60;34.10;;;;;;5113096;28;20051;-79
2022/03/07 03:45:08;;;;;;;0.80;0.70;;;20.60;34.10;;;;;;5112968;28;20368;-79
2022/03/07 03:47:36;;;;;;;0.52;0.52;;;20.60;34.10;;;;;;5113035;28;20055;-79
2022/03/07 03:50:05;;;;;;;0.80;0.80;;;20.60;34.10;;;;;;5112867;28;20051;-79
2022/03/07 03:52:31;;;;;;;0.60;0.60;;;20.60;34.10;;;;;;5112934;28;20051;-79
2022/03/07 03:54:57;;;;;;;0.60;0.60;;;20.60;34.10;;;;;;5112963;28;20058;-79
2022/03/07 03:57:23;;;;;;;0.40;0.40;;;20.60;34.10;;;;;;5112792;28;20098;-78
2022/03/07 03:59:49;;;;;;;0.70;0.70;;;20.60;34.10;;;;;;5112828;28;20426;-79
2022/03/07 04:02:14;;;;;;;0.60;0.60;;;20.60;34.10;;;;;;5094938;28;20051;-78
2022/03/07 04:04:40;;;;;;;0.50;0.50;;;20.60;34.10;;;;;;5113321;28;20074;-79
2022/03/07 04:07:07;;;;;;;0.60;0.60;;;20.60;34.10;;;;;;5112752;28;20047;-79
2022/03/07 04:09:34;;;;;;;0.70;0.68;;;20.60;34.10;;;;;;5112802;28;20085;-79
2022/03/07 04:11:59;;;;;;;0.52;0.50;;;20.60;34.10;;;;;;5112487;28;20055;-79
2022/03/07 04:14:25;;;;;;;0.50;0.50;;;20.60;34.10;;;;;;5113421;28;20398;-79
2022/03/07 04:16:50;;;;;;;0.60;0.60;;;20.60;34.10;;;;;;5116281;28;20063;-79
2022/03/07 04:19:16;;;;;;;0.57;0.57;;;20.60;34.10;;;;;;5116514;28;20063;-79
2022/03/07 04:21:43;;;;;;;0.75;0.65;;;20.60;34.10;;;;;;5115700;28;20135;-79
2022/03/07 04:24:10;;;;;;;0.73;0.70;;;20.60;34.10;;;;;;5116169;28;20052;-79
2022/03/07 04:26:36;;;;;;;0.60;0.60;;;20.60;34.10;;;;;;5115980;28;20100;-79
2022/03/07 04:29:05;;;;;;;0.50;0.50;;;20.60;34.10;;;;;;5115936;28;20054;-79
2022/03/07 04:31:31;;;;;;;0.75;0.75;;;20.60;34.10;;;;;;5116325;28;20047;-79
2022/03/07 04:33:56;;;;;;;0.50;0.50;;;20.60;34.60;;;;;;5114935;28;20047;-79
2022/03/07 04:36:22;;;;;;;0.43;0.43;;;20.60;34.10;;;;;;5115792;28;20058;-79
2022/03/07 04:38:48;;;;;;;0.50;0.50;;;20.60;34.10;;;;;;5115883;28;20081;-79
2022/03/07 04:41:14;;;;;;;0.60;0.60;;;20.60;34.10;;;;;;5115724;28;20097;-79
2022/03/07 04:43:40;;;;;;;0.70;0.70;;;20.60;34.10;;;;;;5116143;28;20047;-79
2022/03/07 04:46:07;;;;;;;0.88;0.73;;;20.60;34.10;;;;;;5097357;28;20059;-79
2022/03/07 04:48:33;;;;;;;0.57;0.57;;;20.60;34.10;;;;;;5116204;28;20082;-79
2022/03/07 04:50:59;;;;;;;0.55;0.55;;;20.60;34.10;;;;;;5116048;28;20101;-78
2022/03/07 04:53:24;;;;;;;0.65;0.65;;;20.60;34.10;;;;;;5114709;28;20086;-79
2022/03/07 04:55:50;;;;;;;0.70;0.70;;;20.60;34.20;;;;;;5115705;28;20044;-79
2022/03/07 04:58:16;;;;;;;0.60;0.60;;;20.60;34.20;;;;;;5115423;28;20388;-79
2022/03/07 05:00:42;;;;;;;0.70;0.70;;;20.50;34.10;;;;;;5115592;28;20059;-79
2022/03/07 05:03:07;;;;;;;0.73;0.60;;;20.60;34.10;;;;;;5115756;28;20487;-79
2022/03/07 05:05:33;;;;;;;0.63;0.63;;;20.60;34.20;;;;;;5095913;28;20389;-79
2022/03/07 05:07:58;;;;;;;0.75;0.75;;;20.60;34.20;;;;;;5114136;28;20051;-79
2022/03/07 05:10:24;;;;;;;0.90;0.80;;;20.50;34.10;;;;;;5116020;28;20105;-79
2022/03/07 05:12:50;;;;;;;0.70;0.70;;;20.60;34.10;;;;;;5113978;28;20071;-79
2022/03/07 05:15:15;;;;;;;0.60;0.60;;;20.60;34.20;;;;;;5115381;28;20051;-79
2022/03/07 05:17:51;;;;;;;0.70;0.70;;;20.50;34.10;;;;;;5114206;28;20109;-79
2022/03/07 05:20:17;;;;;;;0.50;0.50;;;20.50;34.10;;;;;;5115080;28;20060;-79
2022/03/07 05:22:44;;;;;;;0.70;0.70;;;20.60;34.10;;;;;;5096907;28;20051;-79
2022/03/07 05:25:11;;;;;;;0.60;0.50;;;20.60;34.10;;;;;;5115197;28;20047;-79
2022/03/07 05:27:37;;;;;;;0.60;0.60;;;20.60;34.10;;;;;;5095705;28;20070;-79
2022/03/07 05:30:04;;;;;;;0.57;0.57;;;20.60;34.10;;;;;;5115084;28;20491;-78
2022/03/07 05:32:30;;;;;;;0.55;0.55;;;20.60;34.10;;;;;;5115007;28;20055;-79
2022/03/07 05:34:55;;;;;;;0.60;0.60;;;20.60;34.10;;;;;;5115342;28;20121;-78
2022/03/07 05:37:21;;;;;;;0.60;0.60;;;20.60;34.10;;;;;;5115035;28;20615;-79
2022/03/07 05:39:47;;;;;;;0.60;0.60;;;20.60;34.10;;;;;;5096629;28;20083;-79
2022/03/07 05:42:13;;;;;;;0.63;0.52;;;20.60;34.10;;;;;;5096025;28;20040;-79
2022/03/07 05:44:38;;;;;;;0.60;0.60;;;20.60;34.10;;;;;;5096629;28;20408;-78
2022/03/07 05:47:04;;;;;;;0.80;0.80;;;20.60;34.10;;;;;;5114882;28;20051;-79
2022/03/07 05:49:29;;;;;;;0.60;0.60;;;20.60;34.10;;;;;;5114829;28;20059;-79
2022/03/07 05:51:55;;;;;;;0.75;0.70;;;20.60;34.10;;;;;;5114623;28;20134;-79
2022/03/07 05:54:21;;;;;;;0.75;0.75;;;20.60;34.60;;;;;;5096639;28;20108;-79
2022/03/07 05:56:46;;;;;;;0.77;0.77;;;20.60;34.10;;;;;;5095761;28;20051;-78
2022/03/07 05:59:12;;;;;;;0.70;0.70;;;20.60;34.10;;;;;;5114688;28;20126;-79
2022/03/07 06:01:37;;;;;;;0.70;0.70;;;20.60;34.00;;;;;;5094405;28;20051;-78
2022/03/07 06:04:03;;;;;;;0.70;0.70;;;20.60;34.00;;;;;;5114852;28;20100;-79
2022/03/07 06:06:29;;;;;;;0.68;0.68;;;20.60;34.00;;;;;;5113230;28;20055;-79
2022/03/07 06:08:54;;;;;;;0.60;0.60;;;20.60;34.00;;;;;;5096179;28;20052;-79
2022/03/07 06:11:20;;;;;;;0.80;0.80;;;20.60;34.00;;;;;;5114788;28;20460;-78
2022/03/07 06:13:46;;;;;;;0.68;0.68;;;20.70;34.00;;;;;;5096263;28;20136;-79
2022/03/07 06:16:12;;;;;;;0.63;0.63;;;20.70;33.80;;;;;;5114391;28;20400;-79
2022/03/07 06:18:38;;;;;;;0.70;0.70;;;20.80;33.80;;;;;;5112918;28;20395;-78
2022/03/07 06:21:05;;;;;;;0.50;0.50;;;20.90;33.70;;;;;;5114059;28;20435;-79
2022/03/07 06:23:31;;;;;;;0.73;0.73;;;20.90;33.60;;;;;;5114479;28;20047;-79
2022/03/07 06:25:56;;;;;;;0.60;0.60;;;21.00;33.50;;;;;;5114244;28;20051;-79
2022/03/07 06:28:22;;;;;;;0.80;0.60;;;21.00;33.40;;;;;;5095667;28;20047;-78
2022/03/07 06:30:48;;;;;;;0.70;0.60;;;21.10;33.30;;;;;;5114588;28;20052;-79
2022/03/07 06:33:14;;;;;;;0.77;0.70;;;21.20;33.30;;;;;;5114084;28;20491;-79
2022/03/07 06:35:40;;;;;;;0.70;0.70;;;21.30;33.20;;;;;;5114064;28;20054;-78
2022/03/07 06:38:06;;;;;;;0.70;0.70;;;21.30;33.20;;;;;;5113559;28;20048;-78
2022/03/07 06:40:31;;;;;;;0.77;0.77;;;21.30;33.10;;;;;;5113820;28;20051;-79
2022/03/07 06:42:57;;;;;;;0.60;0.60;;;21.40;33.00;;;;;;5113864;28;20043;-79
2022/03/07 06:45:23;;;;;;;0.68;0.68;;;21.40;32.90;;;;;;5113863;28;20133;-79
2022/03/07 06:47:48;;;;;;;0.93;0.88;;;21.50;32.90;;;;;;5113620;28;20047;-79
2022/03/07 06:50:16;;;;;;;0.75;0.70;;;21.50;32.80;;;;;;5113794;28;20517;-79
2022/03/07 06:52:42;;;;;;;0.60;0.60;;;21.60;32.70;;;;;;5113715;28;20043;-79
2022/03/07 06:55:08;;;;;;;0.88;0.82;;;21.60;32.60;;;;;;5095245;28;20056;-78
2022/03/07 06:57:34;;;;;;;0.80;0.80;;;21.70;32.60;;;;;;5094637;28;20048;-79
2022/03/07 07:00:00;;;;;;;0.82;0.82;;;21.70;32.60;;;;;;5113643;28;20051;-78
2022/03/07 07:02:25;;;;;;;0.70;0.70;;;21.70;32.50;;;;;;5113465;28;20048;-79
2022/03/07 07:04:51;;;;;;;0.60;0.60;;;21.80;32.50;;;;;;5112249;28;20103;-78
2022/03/07 07:07:16;;;;;;;0.70;0.70;;;21.80;32.50;;;;;;5113666;28;20149;-78
2022/03/07 07:09:43;;;;;;;0.80;0.80;;;21.80;32.40;;;;;;5112216;28;20403;-78
2022/03/07 07:12:09;;;;;;;0.95;0.90;;;21.90;32.30;;;;;;5113481;28;20429;-78
2022/03/07 07:14:37;;;;;;;0.88;0.88;;;21.90;32.30;;;;;;5095104;28;20139;-78
2022/03/07 07:17:03;;;;;;;0.70;0.70;;;21.90;32.20;;;;;;5113699;28;20055;-78
2022/03/07 07:19:29;;;;;;;0.80;0.80;;;21.90;32.20;;;;;;5113388;28;20560;-79
2022/03/07 07:21:55;;;;;;;0.70;0.70;;;22.00;32.20;;;;;;5111413;28;20113;-78
2022/03/07 07:24:20;;;;;;;0.60;0.60;;;22.00;32.10;;;;;;5113177;28;20059;-78
2022/03/07 07:26:46;;;;;;;0.60;0.60;;;22.00;32.10;;;;;;5113116;28;20469;-78
2022/03/07 07:29:12;;;;;;;1.00;0.90;;;22.10;32.00;;;;;;5112928;28;20108;-78
2022/03/07 07:31:37;;;;;;;0.65;0.60;;;22.10;32.00;;;;;;5113221;28;20050;-78
2022/03/07 07:34:03;;;;;;;0.82;0.82;;;22.10;32.00;;;;;;5113399;28;20048;-78
2022/03/07 07:36:28;;;;;;;0.70;0.70;;;22.10;31.90;;;;;;5113015;28;20059;-79
2022/03/07 07:38:54;;;;;;;0.85;0.85;;;22.10;31.90;;;;;;5112793;28;20097;-78
2022/03/07 07:41:19;;;;;;;0.50;0.50;;;22.10;31.90;;;;;;5112872;28;20043;-78
2022/03/07 07:43:45;;;;;;;0.82;0.82;;;22.20;31.90;;;;;;5112996;28;20055;-79
2022/03/07 07:46:10;;;;;;;0.73;0.73;;;22.20;31.90;;;;;;5112886;28;20086;-79
2022/03/07 07:48:36;;;;;;;0.85;0.85;;;22.20;31.80;;;;;;5113302;28;20055;-78
2022/03/07 07:51:02;;;;;;;0.57;0.57;;;22.20;31.80;;;;;;5101097;28;20618;-79
2022/03/07 07:53:27;;;;;;;0.88;0.88;;;22.20;31.80;;;;;;5101896;28;20054;-79
2022/03/07 07:55:53;;;;;;;0.70;0.70;;;22.20;31.80;;;;;;5101252;28;20095;-78
2022/03/07 07:58:18;;;;;;;1.08;0.90;;;22.20;31.80;;;;;;5119555;28;20380;-78
2022/03/07 08:00:44;;;;;;;0.70;0.68;;;22.20;31.90;;;;;;5119756;28;20483;-78
2022/03/07 08:03:09;;;;;;;0.70;0.70;;;22.10;31.90;;;;;;5119539;28;20086;-78
2022/03/07 08:05:35;;;;;;;0.60;0.60;;;22.10;31.90;;;;;;5119365;28;20108;-78
2022/03/07 08:08:02;;;;;;;0.70;0.70;;;22.10;32.00;;;;;;5119419;28;20047;-78
2022/03/07 08:10:27;;;;;;;0.60;0.60;;;22.10;32.00;;;;;;5119694;28;20383;-78
2022/03/07 08:12:53;;;;;;;0.65;0.65;;;22.00;32.10;;;;;;5119592;28;20055;-78
2022/03/07 08:15:19;;;;;;;0.85;0.75;;;22.00;32.10;;;;;;5119398;28;20065;-79
2022/03/07 08:17:49;;;;;;;0.63;0.63;;;22.00;32.10;;;;;;5119203;28;20051;-78
2022/03/07 08:20:20;;;;;;;1.33;0.80;;;22.00;32.20;;;;;;5100918;28;20075;-78
2022/03/07 08:22:46;;;;;;;0.82;0.82;;;21.90;32.20;;;;;;5119249;28;20055;-78
2022/03/07 08:25:12;;;;;;;0.80;0.80;;;21.90;32.30;;;;;;5119169;28;20051;-78
2022/03/07 08:27:38;;;;;;;0.90;0.90;;;21.90;32.30;;;;;;5119042;28;20062;-78
2022/03/07 08:30:07;;;;;;;1.02;0.73;;;21.80;32.30;;;;;;5119284;28;20044;-78
2022/03/07 08:32:33;;;;;;;0.75;0.75;;;21.80;32.40;;;;;;5119173;28;20138;-78
2022/03/07 08:34:59;;;;;;;0.75;0.75;;;21.80;32.50;;;;;;5119500;28;20058;-78
2022/03/07 08:37:24;;;;;;;0.73;0.73;;;21.70;32.50;;;;;;5118920;28;20047;-78
2022/03/07 08:39:50;;;;;;;0.60;0.60;;;21.70;32.50;;;;;;5119020;28;20048;-78
2022/03/07 08:42:15;;;;;;;0.60;0.60;;;21.70;32.60;;;;;;5118944;28;20051;-79
2022/03/07 08:44:42;;;;;;;0.70;0.70;;;21.60;32.60;;;;;;5119000;28;20055;-78
2022/03/07 08:47:09;;;;;;;1.77;0.77;;;21.60;32.70;;;;;;5118842;28;20498;-78
2022/03/07 08:49:36;;;;;;;1.02;0.70;;;21.60;32.80;;;;;;5118987;28;20180;-79
2022/03/07 08:52:01;;;;;;;0.70;0.70;;;21.50;33.30;;;;;;5118850;28;20443;-78
2022/03/07 08:54:27;;;;;;;0.63;0.63;;;21.50;32.80;;;;;;5118815;28;20116;-78
2022/03/07 08:56:52;;;;;;;0.80;0.80;;;21.50;32.90;;;;;;5118892;28;20107;-79
2022/03/07 08:59:18;;;;;;;0.98;0.90;;;21.50;32.90;;;;;;5118721;28;20047;-78
2022/03/07 09:01:43;;;;;;;0.95;0.95;;;21.40;32.90;;;;;;5116689;28;20372;-79
2022/03/07 09:04:09;;;;;;;0.75;0.75;;;21.40;33.00;;;;;;5115336;28;20534;-78
2022/03/07 09:06:34;;;;;;;1.25;0.85;;;21.40;33.00;;;;;;5115362;28;20554;-78
2022/03/07 09:09:00;;;;;;;0.65;0.65;;;21.30;33.00;;;;;;5115287;28;20441;-78
2022/03/07 09:11:26;;;;;;;0.90;0.82;;;21.30;33.10;;;;;;5115350;28;20456;-79
2022/03/07 09:13:53;;;;;;;0.98;0.80;;;21.30;33.10;;;;;;5115765;28;20101;-78
2022/03/07 09:16:18;;;;;;;0.85;0.85;;;21.30;33.30;;;;;;5114905;28;20043;-79
2022/03/07 09:18:44;;;;;;;0.80;0.80;;;21.30;33.20;;;;;;5115034;28;20096;-78
2022/03/07 09:21:09;;;;;;;0.70;0.70;;;21.20;33.20;;;;;;5114857;28;20127;-79
2022/03/07 09:23:37;;;;;;;0.90;0.90;;;21.20;33.20;;;;;;5115063;28;20441;-79
2022/03/07 09:26:09;;;;;;;0.73;0.70;;;21.20;33.20;;;;;;5115393;28;20086;-78
2022/03/07 09:28:35;;;;;;;;;;;21.20;33.20;;;;;;5097559;28;20047;-79
2022/03/07 09:31:01;;;;;;;0.70;0.70;;;21.20;33.20;;;;;;5114817;28;19915;-78
2022/03/07 09:33:28;;;;;;;0.85;0.73;;;21.20;33.30;;;;;;5115133;28;20083;-79
2022/03/07 09:35:53;;;;;;;0.80;0.80;;;21.20;33.30;;;;;;5115211;28;20047;-79
2022/03/07 09:38:19;;;;;;;0.70;0.70;;;21.20;33.30;;;;;;5114756;28;20484;-78
2022/03/07 09:40:46;;;;;;;0.88;0.80;;;21.20;33.30;;;;;;5096286;28;20081;-78
2022/03/07 09:43:14;;;;;;;0.80;0.80;;;21.10;33.30;;;;;;5114621;28;20124;-79
2022/03/07 09:45:40;;;;;;;0.65;0.65;;;21.10;33.30;;;;;;5114795;28;20059;-78
2022/03/07 09:48:05;;;;;;;0.95;0.80;;;21.10;33.30;;;;;;5114668;28;20051;-79
2022/03/07 09:50:31;;;;;;;0.90;0.80;;;21.10;33.40;;;;;;5114556;28;20051;-78
2022/03/07 09:52:57;;;;;;;0.77;0.77;;;21.10;33.40;;;;;;5095119;28;20054;-78
2022/03/07 09:55:24;;;;;;;0.77;0.77;;;21.10;33.40;;;;;;5114711;28;20057;-79
2022/03/07 09:57:50;;;;;;;0.93;0.93;;;21.10;33.40;;;;;;5114587;28;20062;-78
2022/03/07 10:00:17;;;;;;;0.65;0.65;;;21.10;33.40;;;;;;5114467;28;20043;-78
2022/03/07 10:02:53;;;;;;;0.80;0.80;;;21.10;33.40;;;;;;5114673;28;20150;-79
2022/03/07 10:05:19;;;;;;;0.70;0.70;;;21.10;33.40;;;;;;5114503;28;20059;-79
2022/03/07 10:07:45;;;;;;;1.10;1.00;;;21.10;33.40;;;;;;5114464;28;20129;-78
2022/03/07 10:10:11;;;;;;;0.85;0.85;;;21.10;33.40;;;;;;5094762;28;20097;-79
2022/03/07 10:12:51;;;;;;;1.17;0.80;;;21.10;33.40;;;;;;5113466;28;20132;-79
2022/03/07 10:15:21;;;;;;;0.70;0.70;;;21.10;33.40;;;;;;5114292;28;20106;-79
2022/03/07 10:17:50;;;;;;;0.70;0.70;;;21.10;33.40;;;;;;5114164;28;20048;-79
2022/03/07 10:20:20;;;;;;;0.80;0.80;;;21.10;33.40;;;;;;5094795;28;20055;-79
2022/03/07 10:22:54;;;;;;;0.80;0.80;;;21.10;33.40;;;;;;5112759;28;20403;-79
2022/03/07 10:25:25;;;;;;;0.82;0.82;;;21.10;33.40;;;;;;5114165;28;20083;-79
2022/03/07 10:27:52;;;;;;;;;;;21.10;33.40;;;;;;5114551;28;20046;-79
2022/03/07 10:30:23;;;;;;;0.98;0.90;;;21.10;33.40;;;;;;5095541;28;19923;-79
2022/03/07 10:32:53;;;;;;;;;;;21.10;33.40;;;;;;5114520;28;20439;-79
2022/03/07 10:35:34;;;;;;;0.65;0.60;;;21.10;33.40;;;;;;5113897;28;19923;-79
2022/03/07 10:38:07;;;;;;;0.70;0.70;;;21.10;33.40;;;;;;5095585;28;20142;-79
2022/03/07 10:40:34;;;;;;;1.05;0.85;;;21.10;33.50;;;;;;5113909;28;20079;-79
2022/03/07 10:43:01;;;;;;;0.95;0.73;;;21.10;33.40;;;;;;5095504;28;20070;-79
2022/03/07 10:45:31;;;;;;;1.30;0.93;;;21.10;33.40;;;;;;5113677;28;20044;-79
2022/03/07 10:48:00;;;;;;;0.73;0.73;;;21.10;33.40;;;;;;5095508;28;20082;-79
2022/03/07 10:50:29;;;;;;;0.70;0.70;;;21.10;33.40;;;;;;5113723;28;20056;-79
2022/03/07 10:53:04;;;;;;;1.75;0.82;;;21.10;33.40;;;;;;5112258;28;20518;-78
2022/03/07 10:55:30;;;;;;;0.75;0.75;;;21.10;33.40;;;;;;5114046;28;20044;-79
2022/03/07 10:58:11;;;;;;;0.80;0.80;;;21.10;33.40;;;;;;5112331;28;20085;-79
2022/03/07 11:00:50;;;;;;;0.80;0.80;;;21.10;33.40;;;;;;5112057;28;20048;-79
2022/03/07 11:03:21;;;;;;;0.90;0.90;;;21.10;33.40;;;;;;5113611;28;20427;-79
2022/03/07 11:05:47;;;;;;;0.80;0.80;;;21.10;33.40;;;;;;5113569;28;20116;-79
2022/03/07 11:08:15;;;;;;;0.90;0.90;;;21.10;33.40;;;;;;5113196;28;20059;-79
2022/03/07 11:10:48;;;;;;;0.80;0.80;;;21.10;33.40;;;;;;5113747;28;20044;-79
2022/03/07 11:13:16;;;;;;;1.00;0.90;;;21.10;33.40;;;;;;5076221;28;20095;-79
2022/03/07 11:15:43;;;;;;;0.80;0.80;;;21.10;33.40;;;;;;5078381;28;20052;-79
2022/03/07 11:18:11;;;;;;;1.10;0.90;;;21.10;33.40;;;;;;5113092;28;20116;-79
2022/03/07 11:20:41;;;;;;;0.90;0.90;;;21.10;33.40;;;;;;5113194;28;20150;-78
2022/03/07 11:23:07;;;;;;;0.90;0.90;;;21.10;33.40;;;;;;5113121;28;20047;-79
2022/03/07 11:25:34;;;;;;;0.98;0.90;;;21.10;33.40;;;;;;5112206;28;20052;-79
2022/03/07 11:28:00;;;;;;;0.70;0.70;;;21.10;33.40;;;;;;5113377;28;20364;-79
2022/03/07 11:30:36;;;;;;;0.88;0.88;;;21.10;33.40;;;;;;5112040;28;20047;-79
2022/03/07 11:33:18;;;;;;;1.10;1.00;;;21.10;33.40;;;;;;5109795;28;20052;-79
2022/03/07 11:35:51;;;;;;;1.00;1.00;;;21.10;33.30;;;;;;5094987;28;20061;-79
2022/03/07 11:38:22;;;;;;;0.73;0.73;;;21.10;33.30;;;;;;5092750;28;20058;-78
2022/03/07 11:41:03;;;;;;;0.80;0.80;;;21.20;33.30;;;;;;5113063;28;20176;-79
2022/03/07 11:43:31;;;;;;;0.70;0.70;;;21.20;33.40;;;;;;5113365;28;20138;-79
2022/03/07 11:46:00;;;;;;;0.80;0.80;;;21.20;33.30;;;;;;5112971;28;20047;-79
2022/03/07 11:48:31;;;;;;;0.80;0.80;;;21.20;33.30;;;;;;5112619;28;20047;-79
2022/03/07 11:50:57;;;;;;;0.70;0.70;;;21.20;33.30;;;;;;5112857;28;20047;-79
2022/03/07 11:53:23;;;;;;;1.05;0.90;;;21.20;33.30;;;;;;5110180;28;20056;-79
2022/03/07 11:55:51;;;;;;;0.90;0.80;;;21.20;33.30;;;;;;5112749;28;20526;-79
2022/03/07 11:58:35;;;;;;;1.25;1.00;;;21.20;33.30;;;;;;5112690;28;20051;-79
2022/03/07 12:01:10;;;;;;;1.05;1.00;;;21.20;33.30;;;;;;5094412;28;20130;-79
2022/03/07 12:03:35;;;;;;;0.70;0.70;;;21.20;33.30;;;;;;5094546;28;20054;-79
2022/03/07 12:06:07;;;;;;;1.20;0.98;;;21.20;33.30;;;;;;5094289;28;20047;-79
2022/03/07 12:08:49;;;;;;;;;;;21.20;33.30;;;;;;5094287;28;20437;-79
2022/03/07 12:11:26;;;;;;;1.08;1.00;;;21.20;33.30;;;;;;5112732;28;19923;-79
2022/03/07 12:13:53;;;;;;;0.85;0.82;;;21.20;33.30;;;;;;5094331;28;20488;-79
2022/03/07 12:16:33;;;;;;;0.90;0.85;;;21.20;33.30;;;;;;5094065;28;20048;-78
2022/03/07 12:19:13;;;;;;;1.20;1.10;;;21.20;33.30;;;;;;5112225;28;20058;-79
2022/03/07 12:21:44;;;;;;;0.95;0.90;;;21.20;33.30;;;;;;5112259;28;20105;-78
2022/03/07 12:24:12;;;;;;;1.08;0.98;;;21.20;33.40;;;;;;5112661;28;20055;-79
2022/03/07 12:26:55;;;;;;;0.80;0.80;;;21.20;33.40;;;;;;5075204;28;20101;-79
2022/03/07 12:29:23;;;;;;;0.98;0.90;;;21.20;33.40;;;;;;5094108;28;20055;-78
2022/03/07 12:31:53;;;;;;;1.30;0.90;;;21.10;33.30;;;;;;5112366;28;20426;-79
2022/03/07 12:34:21;;;;;;;0.70;0.70;;;21.20;33.30;;;;;;5112434;28;20406;-79
2022/03/07 12:36:59;;;;;;;1.02;0.80;;;21.20;33.30;;;;;;5095490;28;20491;-78
2022/03/07 12:39:29;;;;;;;1.08;0.98;;;21.10;33.30;;;;;;5115748;28;20552;-79
2022/03/07 12:42:02;;;;;;;0.90;0.90;;;21.20;33.40;;;;;;5115748;28;20039;-78
2022/03/07 12:44:29;;;;;;;1.38;0.85;;;21.20;33.40;;;;;;5116034;28;20100;-79
2022/03/07 12:46:54;;;;;;;1.30;0.90;;;21.20;33.30;;;;;;5113883;28;20398;-79
2022/03/07 12:49:20;;;;;;;1.15;1.05;;;21.20;33.40;;;;;;5115592;28;20059;-78